sim
Sign-in with your pilot id or email,
or register
Callsign
Passwort

Schedule Details

Flight Number: DLH2735 (2)
Departure: Dusseldorf International Airport (EDDL) at 06:10
Arrival: Munich Airport (EDDM) at 07:20
Route: Lufthansa Passenger Schedule. Enter filed route here before submitting Pirep.

Weather Information
Getting current METAR information for EDDL 240720Z 22014KT 9999 FEW019 13/10 Q1004 NOSIG
Getting current METAR information for EDDM 240720Z 24008KT 9999 FEW035 BKN080 15/13 Q1010 NOSIG

Schedule Frequency

Route Map